Time;durP1;ratioP1;P1;durP2;ratioP2;P2;SDS_P1;SDS_P2;PMS_P1;PMS_P2;Temp;Humidity;BMP_temperature;BMP_pressure;BME280_temperature;BME280_humidity;BME280_pressure;Samples;Min_cycle;Max_cycle;Signal;HPM_P1;HPM_P2
2023/10/26 00:01:43;;;;;;;7.03;6.32;;;10.60;99.90;;;;;;5026848;28;20224;-86
2023/10/26 00:04:09;;;;;;;8.07;7.38;;;10.60;99.90;;;;;;5017943;28;20232;-84
2023/10/26 00:06:34;;;;;;;12.00;7.90;;;10.50;99.90;;;;;;5002814;28;20184;-86
2023/10/26 00:09:00;;;;;;;8.90;7.90;;;10.50;99.90;;;;;;5009682;28;20171;-85
2023/10/26 00:11:26;;;;;;;9.82;8.80;;;10.40;99.90;;;;;;5022126;28;20178;-92
2023/10/26 00:13:51;;;;;;;10.82;9.00;;;10.40;99.90;;;;;;5020317;28;20182;-91
2023/10/26 00:16:17;;;;;;;10.18;9.27;;;10.50;99.90;;;;;;5023024;28;20186;-94
2023/10/26 00:18:43;;;;;;;10.35;9.32;;;10.50;99.90;;;;;;5030229;28;20195;-92
2023/10/26 00:21:08;;;;;;;10.85;9.38;;;10.50;99.90;;;;;;5043469;28;20238;-90
2023/10/26 00:23:34;;;;;;;10.85;9.43;;;10.50;99.90;;;;;;5006978;28;20226;-96
2023/10/26 00:26:00;;;;;;;9.77;8.77;;;10.60;99.90;;;;;;5026830;28;20257;-93
2023/10/26 00:28:25;;;;;;;13.40;9.38;;;10.60;99.90;;;;;;5009635;28;20559;-91
2023/10/26 00:30:51;;;;;;;10.60;9.45;;;10.60;99.90;;;;;;5018529;28;20229;-87
2023/10/26 00:33:16;;;;;;;10.80;9.80;;;10.50;99.90;;;;;;5025807;28;20278;-84
2023/10/26 00:35:42;;;;;;;11.25;10.05;;;10.60;99.90;;;;;;5030059;28;20191;-87
2023/10/26 00:38:08;;;;;;;11.73;10.60;;;10.50;99.90;;;;;;5021974;28;20233;-88
2023/10/26 00:40:34;;;;;;;11.27;10.02;;;10.50;99.90;;;;;;5026665;28;20538;-90
2023/10/26 00:43:05;;;;;;;11.38;10.27;;;10.50;99.90;;;;;;5014424;28;20188;-94
2023/10/26 00:45:36;;;;;;;11.02;9.73;;;10.50;99.90;;;;;;5026173;28;20689;-84
2023/10/26 00:48:02;;;;;;;11.13;10.02;;;10.60;99.90;;;;;;5018983;28;20648;-92
2023/10/26 00:50:28;;;;;;;11.23;10.15;;;10.50;99.90;;;;;;5010614;28;20183;-91
2023/10/26 00:52:55;;;;;;;11.45;10.25;;;10.50;99.90;;;;;;5020852;28;20187;-91
2023/10/26 00:55:22;;;;;;;11.57;10.48;;;10.50;99.90;;;;;;5013994;28;20640;-86
2023/10/26 00:57:48;;;;;;;11.77;10.52;;;10.50;99.90;;;;;;5022113;28;20183;-83
2023/10/26 01:00:14;;;;;;;13.05;11.50;;;10.50;99.90;;;;;;5013440;28;20211;-93
2023/10/26 01:02:40;;;;;;;12.13;11.00;;;10.40;99.90;;;;;;5026378;28;20182;-90
2023/10/26 01:05:15;;;;;;;12.73;11.45;;;10.50;99.90;;;;;;5026799;28;20210;-94
2023/10/26 01:07:41;;;;;;;13.85;12.40;;;10.40;99.90;;;;;;5011421;28;20564;-92
2023/10/26 01:10:07;;;;;;;13.82;11.68;;;10.40;99.90;;;;;;5018888;28;20250;-92
2023/10/26 01:12:33;;;;;;;13.73;12.35;;;10.40;99.90;;;;;;5006195;28;20219;-91
2023/10/26 01:15:03;;;;;;;14.40;12.45;;;10.40;99.90;;;;;;5013032;28;20179;-95
2023/10/26 01:17:29;;;;;;;13.35;12.00;;;10.40;99.90;;;;;;5013694;28;20491;-86
2023/10/26 01:19:55;;;;;;;14.80;13.30;;;10.40;99.90;;;;;;5027086;28;20174;-86
2023/10/26 01:22:27;;;;;;;13.35;11.98;;;10.40;99.90;;;;;;5013142;28;20725;-92
2023/10/26 01:24:53;;;;;;;13.85;12.45;;;10.40;99.90;;;;;;5020990;28;20187;-88
2023/10/26 01:27:19;;;;;;;15.80;13.82;;;10.40;99.90;;;;;;5030833;28;20193;-88
2023/10/26 01:29:44;;;;;;;14.10;12.70;;;10.40;99.90;;;;;;5008305;28;20234;-85
2023/10/26 01:32:10;;;;;;;14.45;13.00;;;10.40;99.90;;;;;;5018054;28;20614;-85
2023/10/26 01:34:36;;;;;;;14.30;12.85;;;10.40;99.90;;;;;;5017607;28;20221;-88
2023/10/26 01:37:04;;;;;;;15.57;13.35;;;10.40;99.90;;;;;;5018559;28;20206;-83
2023/10/26 01:39:30;;;;;;;14.90;13.40;;;10.40;99.90;;;;;;5012536;28;20638;-89
2023/10/26 01:41:55;;;;;;;15.80;14.18;;;10.40;99.90;;;;;;5013672;28;20303;-92
2023/10/26 01:44:21;;;;;;;15.70;14.07;;;10.40;99.90;;;;;;5021241;28;20182;-92
2023/10/26 01:46:47;;;;;;;15.13;13.05;;;10.40;99.90;;;;;;5029667;28;20183;-85
2023/10/26 01:49:13;;;;;;;16.38;14.13;;;10.30;99.90;;;;;;5013584;28;20191;-92
2023/10/26 01:51:38;;;;;;;16.00;14.30;;;10.30;99.90;;;;;;5023733;28;20626;-94
2023/10/26 01:54:04;;;;;;;14.93;13.27;;;10.30;99.90;;;;;;5028460;28;20183;-90
2023/10/26 01:56:31;;;;;;;15.75;14.18;;;10.30;99.90;;;;;;5013916;28;20187;-92
2023/10/26 01:58:57;;;;;;;15.13;13.63;;;10.30;99.90;;;;;;5013081;28;20627;-87
2023/10/26 02:01:26;;;;;;;15.20;13.57;;;10.30;99.90;;;;;;5010959;28;20642;-84
2023/10/26 02:03:52;;;;;;;16.58;13.25;;;10.30;99.90;;;;;;5014033;28;20204;-86
2023/10/26 02:06:18;;;;;;;15.30;13.70;;;10.30;99.90;;;;;;5012875;28;20214;-85
2023/10/26 02:08:43;;;;;;;14.60;13.10;;;10.30;99.90;;;;;;5020261;28;20183;-84
2023/10/26 02:11:09;;;;;;;14.82;13.15;;;10.30;99.90;;;;;;5013839;28;20187;-83
2023/10/26 02:13:35;;;;;;;14.43;12.93;;;10.30;99.90;;;;;;5022478;28;20207;-85
2023/10/26 02:16:01;;;;;;;14.90;13.05;;;10.30;99.90;;;;;;5019785;28;20214;-86
2023/10/26 02:18:28;;;;;;;15.35;13.18;;;10.30;99.90;;;;;;5022239;28;20278;-87
2023/10/26 02:20:54;;;;;;;14.80;13.30;;;10.20;99.90;;;;;;5029892;28;20628;-86
2023/10/26 02:23:21;;;;;;;14.18;12.73;;;10.30;99.90;;;;;;5018535;28;20329;-92
2023/10/26 02:25:47;;;;;;;14.27;12.65;;;10.20;99.90;;;;;;5026156;28;20186;-86
2023/10/26 02:28:16;;;;;;;14.68;12.98;;;10.20;99.90;;;;;;5024340;28;20596;-85
2023/10/26 02:30:45;;;;;;;14.02;12.63;;;10.20;99.90;;;;;;5016804;28;20186;-84
2023/10/26 02:33:11;;;;;;;18.05;13.25;;;10.20;99.90;;;;;;5020870;28;20183;-93
2023/10/26 02:35:40;;;;;;;14.25;12.82;;;10.20;99.90;;;;;;5017928;28;20182;-93
2023/10/26 02:38:05;;;;;;;14.98;13.48;;;10.20;99.90;;;;;;5017781;28;20621;-86
2023/10/26 02:40:32;;;;;;;16.95;12.93;;;10.20;99.90;;;;;;5016834;28;20261;-85
2023/10/26 02:42:58;;;;;;;16.13;13.88;;;10.20;99.90;;;;;;5025703;28;20180;-93
2023/10/26 02:45:26;;;;;;;16.33;13.40;;;10.10;99.90;;;;;;5032550;28;20187;-85
2023/10/26 02:47:51;;;;;;;16.63;13.30;;;10.20;99.90;;;;;;5016173;28;20201;-86
2023/10/26 02:50:17;;;;;;;15.27;13.20;;;10.20;99.90;;;;;;5016162;28;20325;-85
2023/10/26 02:52:43;;;;;;;14.68;13.18;;;10.20;99.90;;;;;;5010595;28;20640;-85
2023/10/26 02:55:08;;;;;;;14.38;12.88;;;10.20;99.90;;;;;;5021210;28;20185;-84
2023/10/26 02:57:34;;;;;;;14.77;13.10;;;10.10;99.90;;;;;;5027718;28;20183;-86
2023/10/26 03:00:00;;;;;;;14.18;12.15;;;10.20;99.90;;;;;;5024700;28;20183;-84
2023/10/26 03:02:26;;;;;;;13.85;12.45;;;10.10;99.90;;;;;;5016929;28;20179;-83
2023/10/26 03:04:51;;;;;;;15.07;12.15;;;10.20;99.90;;;;;;5030333;28;20191;-91
2023/10/26 03:07:22;;;;;;;14.10;12.65;;;10.10;99.90;;;;;;5022766;28;20531;-85
2023/10/26 03:09:49;;;;;;;14.52;13.02;;;10.10;99.90;;;;;;5014711;28;20199;-84
2023/10/26 03:12:15;;;;;;;13.30;11.80;;;10.20;99.90;;;;;;5007972;28;20183;-83
2023/10/26 03:14:41;;;;;;;13.95;12.27;;;10.10;99.90;;;;;;5014493;28;20270;-84
2023/10/26 03:17:07;;;;;;;14.75;12.65;;;10.10;99.90;;;;;;5016207;28;20206;-83
2023/10/26 03:19:32;;;;;;;13.40;12.00;;;10.10;99.90;;;;;;5015806;28;20187;-84
2023/10/26 03:21:58;;;;;;;12.52;11.15;;;10.20;99.90;;;;;;5014395;28;20234;-90
2023/10/26 03:24:24;;;;;;;13.50;11.45;;;10.10;99.90;;;;;;5016214;28;20526;-85
2023/10/26 03:26:53;;;;;;;13.57;12.18;;;10.10;99.90;;;;;;5016356;28;20266;-87
2023/10/26 03:29:21;;;;;;;14.20;12.50;;;10.10;99.90;;;;;;5016141;28;20179;-93
2023/10/26 03:31:46;;;;;;;13.82;11.82;;;10.20;99.90;;;;;;5025833;28;20175;-92
2023/10/26 03:34:12;;;;;;;14.15;11.43;;;10.10;99.90;;;;;;5031756;28;20732;-84
2023/10/26 03:36:40;;;;;;;12.75;11.40;;;10.10;99.90;;;;;;5031658;28;20520;-89
2023/10/26 03:39:05;;;;;;;13.32;11.30;;;10.10;99.90;;;;;;5010501;28;20215;-83
2023/10/26 03:41:31;;;;;;;12.38;11.10;;;10.10;99.90;;;;;;5022777;28;20264;-83
2023/10/26 03:43:57;;;;;;;13.70;11.18;;;10.10;99.90;;;;;;5014015;28;20183;-85
2023/10/26 03:46:22;;;;;;;13.18;11.00;;;10.10;99.90;;;;;;5013485;28;20380;-84
2023/10/26 03:48:50;;;;;;;11.90;10.70;;;10.10;99.90;;;;;;5016055;28;20225;-84
2023/10/26 03:51:16;;;;;;;11.82;10.63;;;10.10;99.90;;;;;;5013966;28;20589;-84
2023/10/26 03:53:41;;;;;;;13.13;11.25;;;10.10;99.90;;;;;;5018807;28;20294;-83
2023/10/26 03:56:08;;;;;;;11.48;10.35;;;10.10;99.90;;;;;;5014888;28;20626;-85
2023/10/26 03:58:34;;;;;;;12.38;10.63;;;10.10;99.90;;;;;;5013232;28;20184;-90
2023/10/26 04:01:00;;;;;;;11.05;9.85;;;10.10;99.90;;;;;;5014649;28;20223;-90
2023/10/26 04:03:27;;;;;;;11.93;10.68;;;10.10;99.90;;;;;;5011663;28;20224;-93
2023/10/26 04:05:53;;;;;;;10.38;9.35;;;10.10;99.90;;;;;;5014556;28;20253;-85
2023/10/26 04:08:18;;;;;;;11.85;10.05;;;10.10;99.90;;;;;;5023610;28;20207;-84
2023/10/26 04:10:44;;;;;;;12.05;9.63;;;10.20;99.90;;;;;;5016091;28;20180;-84
2023/10/26 04:13:10;;;;;;;11.73;10.23;;;10.10;99.90;;;;;;5015877;28;20175;-84
2023/10/26 04:15:35;;;;;;;9.82;8.70;;;10.10;99.90;;;;;;5015778;28;20186;-86
2023/10/26 04:18:08;;;;;;;11.10;9.45;;;10.10;99.90;;;;;;5022049;28;20183;-86
2023/10/26 04:20:34;;;;;;;10.90;9.65;;;10.10;99.90;;;;;;5026890;28;20205;-89
2023/10/26 04:23:00;;;;;;;10.55;9.55;;;10.10;99.90;;;;;;5025097;28;20281;-84
2023/10/26 04:25:28;;;;;;;9.75;8.75;;;10.10;99.90;;;;;;5024320;28;20225;-85
2023/10/26 04:27:57;;;;;;;9.60;8.70;;;10.10;99.90;;;;;;5032145;28;20190;-84
2023/10/26 04:30:23;;;;;;;9.23;8.27;;;10.10;99.90;;;;;;5023716;28;20668;-84
2023/10/26 04:32:50;;;;;;;10.35;8.65;;;10.10;99.90;;;;;;5026941;28;20231;-85
2023/10/26 04:35:15;;;;;;;9.18;8.25;;;10.10;99.90;;;;;;5026244;28;20178;-82
2023/10/26 04:37:42;;;;;;;8.95;8.05;;;10.10;99.90;;;;;;5013695;28;20563;-91
2023/10/26 04:40:09;;;;;;;10.80;8.27;;;10.20;99.90;;;;;;5021844;28;20182;-93
2023/10/26 04:42:35;;;;;;;8.82;7.47;;;10.10;99.90;;;;;;5013656;28;20210;-90
2023/10/26 04:45:00;;;;;;;10.20;7.60;;;10.20;99.90;;;;;;5009558;28;20183;-93
2023/10/26 04:47:27;;;;;;;9.07;8.18;;;10.10;99.90;;;;;;5028381;28;20189;-86
2023/10/26 04:49:53;;;;;;;10.27;8.55;;;10.10;99.90;;;;;;5013573;28;20648;-87
2023/10/26 04:52:20;;;;;;;11.15;7.95;;;10.10;99.90;;;;;;5024704;28;20187;-84
2023/10/26 04:54:46;;;;;;;8.60;7.78;;;10.10;99.90;;;;;;5014904;28;20171;-84
2023/10/26 04:57:14;;;;;;;8.30;7.40;;;10.10;99.90;;;;;;5022437;28;20258;-85
2023/10/26 04:59:40;;;;;;;8.60;7.15;;;10.10;99.90;;;;;;5013289;28;20510;-83
2023/10/26 05:02:06;;;;;;;9.95;7.60;;;10.10;99.90;;;;;;5018696;28;20210;-87
2023/10/26 05:04:31;;;;;;;8.10;7.30;;;10.10;99.90;;;;;;5015047;28;20290;-85
2023/10/26 05:06:57;;;;;;;8.23;7.43;;;10.10;99.90;;;;;;5022054;28;20179;-83
2023/10/26 05:09:23;;;;;;;10.30;8.05;;;10.10;99.90;;;;;;5013992;28;20674;-88
2023/10/26 05:11:48;;;;;;;9.20;8.20;;;10.00;99.90;;;;;;5023193;28;20199;-89
2023/10/26 05:14:14;;;;;;;8.20;7.40;;;10.10;99.90;;;;;;5030003;28;20266;-92
2023/10/26 05:16:41;;;;;;;7.30;6.25;;;10.10;99.90;;;;;;5012644;28;20277;-93
2023/10/26 05:19:09;;;;;;;8.02;7.22;;;10.10;99.90;;;;;;5016357;28;20179;-94
2023/10/26 05:21:34;;;;;;;7.63;6.93;;;10.10;99.90;;;;;;5031115;28;20199;-94
2023/10/26 05:24:00;;;;;;;7.95;7.15;;;10.10;99.90;;;;;;5010979;28;20245;-91
2023/10/26 05:26:26;;;;;;;7.20;6.50;;;10.10;99.90;;;;;;5022975;28;20209;-94
2023/10/26 05:28:51;;;;;;;7.70;6.45;;;10.10;99.90;;;;;;5014262;28;20179;-85
2023/10/26 05:31:17;;;;;;;7.32;6.57;;;10.10;99.90;;;;;;5012768;28;20187;-84
2023/10/26 05:33:43;;;;;;;6.95;6.15;;;10.10;99.90;;;;;;5025378;28;20560;-87
2023/10/26 05:36:08;;;;;;;7.82;7.07;;;10.10;99.90;;;;;;5019829;28;20178;-91
2023/10/26 05:38:35;;;;;;;7.40;6.70;;;10.10;99.90;;;;;;5012135;28;20225;-89
2023/10/26 05:41:01;;;;;;;7.97;6.47;;;10.10;99.90;;;;;;5014845;28;20213;-86
2023/10/26 05:43:26;;;;;;;9.43;6.97;;;10.10;99.90;;;;;;5024944;28;20601;-85
2023/10/26 05:45:54;;;;;;;7.60;6.43;;;10.10;99.90;;;;;;5020245;28;20182;-89
2023/10/26 05:48:23;;;;;;;6.13;5.53;;;10.10;99.90;;;;;;5025426;28;20180;-90
2023/10/26 05:50:48;;;;;;;5.93;5.40;;;10.10;99.90;;;;;;5015627;28;20175;-90
2023/10/26 05:53:14;;;;;;;6.53;5.65;;;10.00;99.90;;;;;;5019418;28;20190;-94
2023/10/26 05:55:40;;;;;;;6.00;5.38;;;10.00;99.90;;;;;;5019333;28;20217;-91
2023/10/26 05:58:09;;;;;;;6.03;5.53;;;10.00;99.90;;;;;;5022776;28;20206;-87
2023/10/26 06:00:34;;;;;;;6.45;5.65;;;10.10;99.90;;;;;;5024080;28;20195;-90
2023/10/26 06:03:00;;;;;;;6.50;5.85;;;10.10;99.90;;;;;;5016658;28;20200;-94
2023/10/26 06:05:26;;;;;;;5.00;4.50;;;10.10;99.90;;;;;;5016067;28;20182;-94
2023/10/26 06:08:01;;;;;;;5.97;5.38;;;10.10;99.90;;;;;;5033270;28;20182;-92
2023/10/26 06:10:26;;;;;;;6.18;5.35;;;10.10;99.90;;;;;;5018928;28;20221;-90
2023/10/26 06:12:52;;;;;;;6.38;5.68;;;10.10;99.90;;;;;;5022442;28;20625;-82
2023/10/26 06:15:18;;;;;;;5.80;5.22;;;10.00;99.90;;;;;;5013626;28;20241;-87
2023/10/26 06:17:43;;;;;;;5.82;5.30;;;10.00;99.90;;;;;;5025363;28;20183;-86
2023/10/26 06:20:09;;;;;;;6.40;5.70;;;10.00;99.90;;;;;;5028681;28;20504;-86
2023/10/26 06:22:35;;;;;;;6.82;5.15;;;10.00;99.90;;;;;;5036339;28;20234;-87
2023/10/26 06:25:01;;;;;;;5.93;5.32;;;10.00;99.90;;;;;;5007372;28;20207;-83
2023/10/26 06:27:26;;;;;;;8.32;5.72;;;10.00;99.90;;;;;;5032060;28;20188;-83
2023/10/26 06:29:58;;;;;;;5.50;5.00;;;10.00;99.90;;;;;;5015847;28;20183;-92
2023/10/26 06:32:24;;;;;;;5.80;5.30;;;10.10;99.90;;;;;;5035226;28;20516;-89
2023/10/26 06:34:50;;;;;;;6.25;5.50;;;10.00;99.90;;;;;;5026410;28;20179;-93
2023/10/26 06:37:16;;;;;;;5.82;5.20;;;10.00;99.90;;;;;;5020773;28;20183;-94
2023/10/26 06:39:42;;;;;;;5.97;5.38;;;10.00;99.90;;;;;;5011098;28;20230;-87
2023/10/26 06:42:08;;;;;;;6.32;5.72;;;10.00;99.90;;;;;;5024855;28;20210;-85
2023/10/26 06:44:33;;;;;;;5.75;5.25;;;10.00;99.90;;;;;;5013873;28;20636;-87
2023/10/26 06:46:59;;;;;;;6.00;5.50;;;10.00;99.90;;;;;;5017626;28;20262;-91
2023/10/26 06:49:26;;;;;;;5.93;5.35;;;10.00;99.90;;;;;;5017160;28;20187;-94
2023/10/26 06:51:51;;;;;;;6.40;5.20;;;10.00;99.90;;;;;;5025642;28;20178;-90
2023/10/26 06:54:17;;;;;;;6.07;5.40;;;10.00;99.90;;;;;;5025079;28;20287;-84
2023/10/26 06:56:43;;;;;;;5.93;5.35;;;10.10;99.90;;;;;;5029993;28;20190;-85
2023/10/26 06:59:09;;;;;;;5.78;5.28;;;10.10;99.90;;;;;;5020290;28;20568;-84
2023/10/26 07:01:35;;;;;;;7.00;5.10;;;10.10;99.90;;;;;;5016317;28;20217;-91
2023/10/26 07:04:00;;;;;;;6.88;5.53;;;10.10;99.90;;;;;;5031127;28;20265;-92
2023/10/26 07:06:26;;;;;;;7.43;5.03;;;10.10;99.90;;;;;;5023670;28;20210;-93
2023/10/26 07:08:53;;;;;;;6.30;5.22;;;10.10;99.90;;;;;;5009339;28;20194;-93
2023/10/26 07:11:18;;;;;;;5.68;5.07;;;10.10;99.90;;;;;;5024540;28;20217;-84
2023/10/26 07:13:45;;;;;;;5.13;4.65;;;10.10;99.90;;;;;;5016218;28;20206;-88
2023/10/26 07:16:11;;;;;;;5.65;5.15;;;10.10;99.90;;;;;;5015552;28;20195;-83
2023/10/26 07:18:37;;;;;;;5.15;4.65;;;10.10;99.90;;;;;;5015496;28;20186;-86
2023/10/26 07:21:07;;;;;;;4.72;4.30;;;10.10;99.90;;;;;;5024645;28;20401;-83
2023/10/26 07:23:33;;;;;;;4.85;4.38;;;10.10;99.90;;;;;;5022396;28;20721;-86
2023/10/26 07:25:59;;;;;;;5.30;4.75;;;10.10;99.90;;;;;;5016782;28;20186;-83
2023/10/26 07:28:25;;;;;;;5.75;4.00;;;10.10;99.90;;;;;;5023022;28;20179;-84
2023/10/26 07:30:51;;;;;;;4.38;3.97;;;10.10;99.90;;;;;;5015380;28;20499;-83
2023/10/26 07:33:20;;;;;;;4.72;3.60;;;10.10;99.90;;;;;;5013616;28;20531;-88
2023/10/26 07:35:55;;;;;;;4.40;4.00;;;10.10;99.90;;;;;;5026124;28;20522;-89
2023/10/26 07:38:24;;;;;;;4.38;3.97;;;10.10;99.90;;;;;;5014120;28;20242;-93
2023/10/26 07:40:52;;;;;;;4.03;3.60;;;10.10;99.90;;;;;;5029725;28;20272;-84
2023/10/26 07:43:17;;;;;;;3.95;3.35;;;10.10;99.90;;;;;;5026006;28;20640;-88
2023/10/26 07:45:44;;;;;;;3.60;3.30;;;10.10;99.90;;;;;;5026171;28;20187;-84
2023/10/26 07:48:10;;;;;;;3.33;3.03;;;10.10;99.90;;;;;;5034895;28;20609;-85
2023/10/26 07:50:35;;;;;;;4.82;2.97;;;10.10;99.90;;;;;;5019680;28;20210;-85
2023/10/26 07:53:01;;;;;;;4.03;2.80;;;10.10;99.90;;;;;;5021337;28;20186;-84
2023/10/26 07:55:27;;;;;;;3.00;2.67;;;10.10;99.90;;;;;;5013338;28;20518;-85
2023/10/26 07:57:54;;;;;;;3.80;2.38;;;10.10;99.90;;;;;;5031302;28;20184;-83
2023/10/26 08:00:19;;;;;;;2.90;2.70;;;10.10;99.90;;;;;;5014957;28;20185;-85
2023/10/26 08:02:45;;;;;;;3.33;2.95;;;10.10;99.90;;;;;;5016100;28;20183;-85
2023/10/26 08:05:12;;;;;;;2.58;2.38;;;10.10;99.90;;;;;;5015253;28;20179;-85
2023/10/26 08:07:38;;;;;;;3.85;2.28;;;10.10;99.90;;;;;;5008171;28;20171;-87
2023/10/26 08:10:04;;;;;;;2.20;2.00;;;10.10;99.90;;;;;;5021545;28;20694;-87
2023/10/26 08:12:30;;;;;;;2.17;1.98;;;10.10;99.90;;;;;;5032372;28;20206;-84
2023/10/26 08:14:57;;;;;;;2.88;2.55;;;10.20;99.90;;;;;;5021516;28;20179;-85
2023/10/26 08:17:25;;;;;;;2.17;1.98;;;10.20;99.90;;;;;;5034380;28;20186;-90
2023/10/26 08:19:53;;;;;;;3.13;1.88;;;10.10;99.90;;;;;;5016066;28;20183;-92
2023/10/26 08:22:20;;;;;;;1.98;1.77;;;10.20;99.90;;;;;;5021553;28;20226;-94
2023/10/26 08:24:49;;;;;;;2.20;2.00;;;10.20;99.90;;;;;;5023888;28;20602;-93
2023/10/26 08:27:15;;;;;;;2.60;2.10;;;10.20;99.90;;;;;;5016259;28;20232;-92
2023/10/26 08:29:43;;;;;;;2.30;2.10;;;10.20;99.90;;;;;;5014508;28;20176;-90
2023/10/26 08:32:09;;;;;;;2.83;2.20;;;10.20;99.90;;;;;;5012120;28;20629;-92
2023/10/26 08:34:34;;;;;;;2.10;1.90;;;10.10;99.90;;;;;;5012586;28;20190;-91
2023/10/26 08:37:00;;;;;;;2.50;2.30;;;10.20;99.90;;;;;;5022947;28;20224;-92
2023/10/26 08:39:26;;;;;;;2.53;2.33;;;10.20;99.90;;;;;;5016032;28;20205;-95
2023/10/26 08:41:52;;;;;;;2.90;2.30;;;10.20;99.90;;;;;;5024083;28;20242;-91
2023/10/26 08:44:18;;;;;;;3.38;2.30;;;10.20;99.90;;;;;;5036697;28;20317;-92
2023/10/26 08:46:47;;;;;;;3.08;2.20;;;10.20;99.90;;;;;;5014635;28;20187;-93
2023/10/26 08:49:14;;;;;;;2.40;2.20;;;10.20;99.90;;;;;;5022880;28;20606;-92
2023/10/26 08:51:46;;;;;;;3.55;2.40;;;10.20;99.90;;;;;;5024117;28;20190;-90
2023/10/26 08:54:12;;;;;;;2.40;2.20;;;10.20;99.90;;;;;;5008479;28;20179;-93
2023/10/26 08:56:38;;;;;;;3.15;2.45;;;10.20;99.90;;;;;;5019066;28;20205;-85
2023/10/26 08:59:04;;;;;;;3.70;2.42;;;10.20;99.90;;;;;;5025297;28;20185;-85
2023/10/26 09:01:30;;;;;;;3.22;2.92;;;10.20;99.90;;;;;;5033072;28;20268;-92
2023/10/26 09:03:56;;;;;;;4.80;2.83;;;10.20;99.90;;;;;;5018014;28;20180;-93
2023/10/26 09:06:21;;;;;;;3.00;2.75;;;10.20;99.90;;;;;;5013261;28;20714;-89
2023/10/26 09:09:03;;;;;;;3.22;2.92;;;10.30;99.90;;;;;;5013696;28;20618;-86
2023/10/26 09:11:30;;;;;;;3.30;3.00;;;10.30;99.90;;;;;;5016359;28;20520;-91
2023/10/26 09:14:12;;;;;;;3.22;2.92;;;10.30;99.90;;;;;;5034107;28;20185;-91
2023/10/26 09:16:39;;;;;;;3.75;3.38;;;10.30;99.90;;;;;;5023246;28;20679;-92
2023/10/26 09:19:05;;;;;;;3.50;3.17;;;10.30;99.90;;;;;;5022418;28;20179;-91
2023/10/26 09:21:51;;;;;;;5.15;3.58;;;10.30;99.90;;;;;;5013768;28;20264;-93
2023/10/26 09:24:21;;;;;;;3.47;3.17;;;10.40;99.90;;;;;;5014591;28;20700;-91
2023/10/26 09:26:47;;;;;;;3.85;3.45;;;10.30;99.90;;;;;;5014671;28;20187;-85
2023/10/26 09:29:12;;;;;;;3.70;3.40;;;10.40;99.90;;;;;;5012758;28;20567;-81
2023/10/26 09:31:52;;;;;;;3.90;3.25;;;10.30;99.90;;;;;;5005383;28;20191;-84
2023/10/26 09:34:18;;;;;;;3.92;3.53;;;10.40;99.90;;;;;;5012288;28;20175;-88
2023/10/26 09:37:05;;;;;;;3.70;3.40;;;10.40;99.90;;;;;;5014087;28;20248;-94
2023/10/26 09:39:33;;;;;;;4.57;3.42;;;10.40;99.90;;;;;;5007677;28;20217;-94
2023/10/26 09:42:02;;;;;;;3.75;3.45;;;10.40;99.90;;;;;;5037664;28;20250;-91
2023/10/26 09:44:29;;;;;;;3.85;3.40;;;10.30;99.90;;;;;;5016041;28;20179;-83
2023/10/26 09:46:56;;;;;;;3.85;3.53;;;10.40;99.90;;;;;;5023895;28;20190;-93
2023/10/26 09:49:23;;;;;;;4.30;3.88;;;10.40;99.90;;;;;;5017168;28;20186;-82
2023/10/26 09:51:49;;;;;;;4.45;3.75;;;10.50;99.90;;;;;;5037931;28;20266;-83
2023/10/26 09:54:16;;;;;;;4.63;4.13;;;10.50;99.90;;;;;;5021916;28;20632;-84
2023/10/26 09:56:49;;;;;;;4.50;4.10;;;10.50;99.90;;;;;;5018452;28;20614;-82
2023/10/26 09:59:15;;;;;;;4.22;3.85;;;10.50;99.90;;;;;;5025218;28;20206;-82
2023/10/26 10:01:41;;;;;;;4.57;3.63;;;10.50;99.90;;;;;;5025352;28;20292;-83
2023/10/26 10:04:10;;;;;;;4.13;3.72;;;10.50;99.90;;;;;;5029977;28;20267;-83
2023/10/26 10:07:02;;;;;;;4.03;3.63;;;10.50;99.90;;;;;;5027676;28;20278;-84
2023/10/26 10:09:29;;;;;;;5.03;3.75;;;10.50;99.90;;;;;;5013309;28;20175;-84
2023/10/26 10:12:15;;;;;;;4.35;3.63;;;10.50;99.90;;;;;;5018457;28;20171;-83
2023/10/26 10:14:47;;;;;;;3.97;3.60;;;10.50;99.90;;;;;;5012874;28;20190;-83
2023/10/26 10:17:17;;;;;;;3.78;3.40;;;10.50;99.90;;;;;;5018678;28;20178;-84
2023/10/26 10:19:46;;;;;;;4.95;3.90;;;10.50;99.90;;;;;;5011395;28;20187;-85
2023/10/26 10:22:33;;;;;;;4.70;3.60;;;10.50;99.90;;;;;;5021099;28;20231;-83
2023/10/26 10:24:59;;;;;;;3.80;3.50;;;10.50;99.90;;;;;;5010691;28;20746;-85
2023/10/26 10:27:25;;;;;;;4.97;3.70;;;10.50;99.90;;;;;;5024802;28;20495;-83
2023/10/26 10:29:58;;;;;;;3.90;3.45;;;10.50;99.90;;;;;;5023286;28;20174;-83
2023/10/26 10:32:42;;;;;;;3.42;3.13;;;10.50;99.90;;;;;;5026699;28;20186;-85
2023/10/26 10:35:09;;;;;;;3.97;3.15;;;10.50;99.90;;;;;;5032928;28;20183;-84
2023/10/26 10:37:36;;;;;;;3.80;3.50;;;10.60;99.90;;;;;;5032884;28;20183;-83
2023/10/26 10:40:16;;;;;;;4.10;3.70;;;10.60;99.90;;;;;;5024267;28;20174;-83
2023/10/26 10:42:50;;;;;;;3.97;3.55;;;10.50;99.90;;;;;;5022238;28;20264;-83
2023/10/26 10:45:17;;;;;;;4.72;4.07;;;10.60;99.90;;;;;;5020608;28;20170;-82
2023/10/26 10:47:45;;;;;;;4.28;3.88;;;10.60;99.90;;;;;;5020656;28;20179;-83
2023/10/26 10:50:25;;;;;;;5.70;4.50;;;10.60;99.90;;;;;;5020385;28;20512;-82
2023/10/26 10:52:55;;;;;;;5.10;4.60;;;10.60;99.90;;;;;;5004909;28;20245;-84
2023/10/26 10:55:29;;;;;;;6.18;4.68;;;10.60;99.90;;;;;;5013348;28;20630;-85
2023/10/26 10:57:56;;;;;;;4.60;4.20;;;10.70;99.90;;;;;;5025623;28;20175;-82
2023/10/26 11:00:24;;;;;;;4.85;4.45;;;10.70;99.90;;;;;;5017089;28;20237;-84
2023/10/26 11:02:52;;;;;;;5.45;4.57;;;10.70;99.90;;;;;;5019783;28;20269;-82
2023/10/26 11:05:18;;;;;;;4.13;3.72;;;10.70;99.90;;;;;;5019047;28;20179;-82
2023/10/26 11:07:44;;;;;;;4.93;4.10;;;10.70;99.90;;;;;;5020057;28;20574;-88
2023/10/26 11:10:10;;;;;;;5.00;3.65;;;10.70;99.90;;;;;;5044858;28;20179;-84
2023/10/26 11:12:36;;;;;;;4.40;4.00;;;10.70;99.90;;;;;;5019003;28;20244;-83
2023/10/26 11:15:03;;;;;;;5.45;4.95;;;10.70;99.90;;;;;;5030285;28;20241;-83
2023/10/26 11:17:31;;;;;;;5.40;4.82;;;10.70;99.90;;;;;;5018079;28;20187;-86
2023/10/26 11:19:56;;;;;;;5.70;5.10;;;10.70;99.90;;;;;;5031108;28;20234;-84
2023/10/26 11:22:22;;;;;;;5.30;4.80;;;10.70;99.90;;;;;;5021529;28;20232;-83
2023/10/26 11:24:49;;;;;;;4.88;4.20;;;10.70;99.90;;;;;;5016625;28;20491;-82
2023/10/26 11:27:17;;;;;;;6.30;4.80;;;10.70;99.90;;;;;;5007426;28;20270;-84
2023/10/26 11:29:44;;;;;;;6.78;5.07;;;10.70;99.90;;;;;;5009098;28;20182;-83
2023/10/26 11:32:26;;;;;;;5.68;5.15;;;10.70;99.90;;;;;;5024721;28;20200;-83
2023/10/26 11:35:08;;;;;;;5.72;5.13;;;10.70;99.90;;;;;;5008013;28;20204;-84
2023/10/26 11:37:35;;;;;;;6.38;5.70;;;10.70;99.90;;;;;;5027019;28;20277;-87
2023/10/26 11:40:05;;;;;;;7.20;6.13;;;10.70;99.90;;;;;;5028535;28;20206;-82
2023/10/26 11:42:51;;;;;;;7.60;6.15;;;10.70;99.90;;;;;;5016508;28;20213;-83
2023/10/26 11:45:19;;;;;;;7.90;6.40;;;10.70;99.90;;;;;;5008488;28;20176;-82
2023/10/26 11:47:54;;;;;;;7.20;6.35;;;10.70;99.90;;;;;;5028956;28;20171;-83
2023/10/26 11:50:31;;;;;;;8.52;6.32;;;10.70;99.90;;;;;;5020024;28;20513;-82
2023/10/26 11:53:02;;;;;;;7.63;6.93;;;10.70;99.90;;;;;;5017319;28;20244;-82
2023/10/26 11:55:31;;;;;;;7.72;6.93;;;10.70;99.90;;;;;;5016078;28;20171;-85
2023/10/26 11:58:01;;;;;;;7.10;6.40;;;10.70;99.90;;;;;;5023176;28;20229;-87
2023/10/26 12:00:28;;;;;;;7.72;6.80;;;10.70;99.90;;;;;;5025856;28;20175;-82
2023/10/26 12:02:58;;;;;;;8.68;6.32;;;10.70;99.90;;;;;;5027968;28;20656;-85
2023/10/26 12:05:26;;;;;;;7.07;6.30;;;10.70;99.90;;;;;;5018217;28;20188;-86
2023/10/26 12:07:52;;;;;;;7.90;7.05;;;10.70;99.90;;;;;;5020412;28;20625;-83
2023/10/26 12:10:20;;;;;;;7.38;6.60;;;10.70;99.90;;;;;;5026871;28;20186;-81
2023/10/26 12:12:48;;;;;;;7.30;6.60;;;10.70;99.90;;;;;;5019343;28;20182;-82
2023/10/26 12:15:14;;;;;;;8.70;6.13;;;10.70;99.90;;;;;;5026348;28;20183;-91
2023/10/26 12:17:40;;;;;;;6.40;5.80;;;10.70;99.90;;;;;;5019407;28;20190;-83
2023/10/26 12:20:06;;;;;;;6.80;5.95;;;10.70;99.90;;;;;;5011579;28;20180;-83
2023/10/26 12:22:32;;;;;;;6.45;5.82;;;10.60;99.90;;;;;;5033641;28;20242;-83
2023/10/26 12:25:04;;;;;;;7.38;6.18;;;10.70;99.90;;;;;;5021024;28;20257;-83
2023/10/26 12:27:30;;;;;;;7.10;5.78;;;10.70;99.90;;;;;;5017827;28;20193;-84
2023/10/26 12:29:55;;;;;;;6.60;5.93;;;10.70;99.90;;;;;;5020441;28;20617;-81
2023/10/26 12:32:23;;;;;;;7.30;6.60;;;10.70;99.90;;;;;;5015895;28;20188;-82
2023/10/26 12:34:50;;;;;;;7.18;5.72;;;10.70;99.90;;;;;;5019505;28;20621;-85
2023/10/26 12:37:15;;;;;;;6.95;6.15;;;10.70;99.90;;;;;;5034779;28;20228;-83
2023/10/26 12:39:41;;;;;;;6.47;5.85;;;10.70;99.90;;;;;;4998421;28;20190;-82
2023/10/26 12:42:07;;;;;;;8.43;5.90;;;10.70;99.90;;;;;;5016349;28;20211;-82